Time;durP1;ratioP1;P1;durP2;ratioP2;P2;SDS_P1;SDS_P2;PMS_P1;PMS_P2;Temp;Humidity;BMP_temperature;BMP_pressure;BME280_temperature;BME280_humidity;BME280_pressure;Samples;Min_cycle;Max_cycle;Signal;HPM_P1;HPM_P2
2021/09/17 00:02:07;;;;;;;4.75;3.40;;;14.60;99.90;;;;;;5075614;28;20020;-85
2021/09/17 00:04:33;;;;;;;11.10;4.22;;;14.60;99.90;;;;;;5056001;28;20021;-82
2021/09/17 00:06:58;;;;;;;4.95;3.20;;;14.60;99.90;;;;;;5052172;28;20021;-82
2021/09/17 00:09:24;;;;;;;5.18;3.47;;;14.90;99.90;;;;;;5044943;28;20037;-84
2021/09/17 00:11:49;;;;;;;6.40;3.70;;;14.60;99.90;;;;;;5049496;28;20033;-83
2021/09/17 00:14:15;;;;;;;5.68;3.80;;;14.50;99.90;;;;;;5044701;28;20052;-83
2021/09/17 00:16:41;;;;;;;8.70;3.75;;;14.50;99.90;;;;;;5045663;28;20448;-82
2021/09/17 00:19:07;;;;;;;5.43;3.55;;;14.40;99.90;;;;;;5041640;28;20026;-82
2021/09/17 00:21:32;;;;;;;6.82;3.72;;;14.60;99.90;;;;;;5036620;28;20478;-80
2021/09/17 00:23:58;;;;;;;7.68;3.45;;;14.60;99.90;;;;;;5042618;28;20048;-84
2021/09/17 00:26:23;;;;;;;6.28;3.58;;;14.40;99.90;;;;;;5049626;28;20047;-81
2021/09/17 00:28:50;;;;;;;6.65;3.88;;;14.40;99.90;;;;;;5042103;28;20505;-83
2021/09/17 00:31:16;;;;;;;6.80;4.13;;;14.30;99.90;;;;;;5044612;28;20411;-83
2021/09/17 00:33:42;;;;;;;7.68;3.63;;;14.30;99.90;;;;;;5040263;28;20033;-83
2021/09/17 00:36:08;;;;;;;6.63;3.75;;;14.30;99.90;;;;;;5041213;28;20053;-81
2021/09/17 00:38:33;;;;;;;6.07;3.92;;;14.20;99.90;;;;;;5043804;28;20276;-82
2021/09/17 00:40:59;;;;;;;6.10;4.18;;;14.20;99.90;;;;;;5038898;28;20037;-84
2021/09/17 00:43:25;;;;;;;5.65;4.00;;;14.20;99.90;;;;;;5049347;28;20026;-84
2021/09/17 00:45:50;;;;;;;9.23;4.30;;;14.10;99.90;;;;;;5050179;28;20021;-84
2021/09/17 00:48:16;;;;;;;9.32;3.92;;;14.30;99.90;;;;;;5046065;28;20026;-83
2021/09/17 00:50:42;;;;;;;5.60;3.83;;;14.10;99.90;;;;;;5042863;28;20025;-84
2021/09/17 00:53:08;;;;;;;7.03;3.88;;;14.10;99.90;;;;;;5052356;28;20032;-85
2021/09/17 00:55:35;;;;;;;9.85;4.68;;;14.00;99.90;;;;;;5052224;28;20122;-84
2021/09/17 00:58:01;;;;;;;6.45;3.55;;;14.10;99.90;;;;;;5041545;28;20017;-84
2021/09/17 01:00:26;;;;;;;7.70;3.85;;;14.90;99.90;;;;;;5059455;28;20088;-83
2021/09/17 01:02:52;;;;;;;6.05;3.90;;;14.90;99.90;;;;;;5045981;28;20047;-83
2021/09/17 01:05:18;;;;;;;5.07;3.22;;;14.00;99.90;;;;;;5042554;28;20411;-85
2021/09/17 01:07:45;;;;;;;5.53;3.33;;;14.00;99.90;;;;;;5048515;28;20025;-82
2021/09/17 01:10:11;;;;;;;5.95;3.63;;;15.60;99.90;;;;;;5043272;28;20030;-83
2021/09/17 01:12:38;;;;;;;5.05;3.15;;;15.60;99.90;;;;;;5049096;28;20422;-84
2021/09/17 01:15:08;;;;;;;7.78;3.97;;;14.70;99.90;;;;;;5048498;28;20036;-83
2021/09/17 01:17:38;;;;;;;6.70;3.83;;;13.00;99.90;;;;;;5050025;28;20047;-83
2021/09/17 01:20:06;;;;;;;6.20;3.97;;;14.80;99.90;;;;;;5042936;28;20061;-81
2021/09/17 01:22:32;;;;;;;6.07;3.80;;;13.80;99.90;;;;;;5043199;28;20049;-82
2021/09/17 01:24:58;;;;;;;4.43;3.50;;;13.80;99.90;;;;;;5060518;28;20052;-83
2021/09/17 01:27:24;;;;;;;6.13;3.65;;;13.80;99.90;;;;;;5052881;28;20018;-81
2021/09/17 01:29:51;;;;;;;8.60;4.28;;;15.90;99.90;;;;;;5047720;28;20029;-85
2021/09/17 01:32:17;;;;;;;7.13;3.85;;;13.70;99.90;;;;;;5045949;28;20045;-82
2021/09/17 01:34:43;;;;;;;5.72;3.88;;;15.10;99.90;;;;;;5047797;28;20025;-82
2021/09/17 01:37:08;;;;;;;5.93;3.70;;;13.70;99.90;;;;;;5049005;28;20025;-81
2021/09/17 01:39:34;;;;;;;5.90;3.80;;;14.20;99.90;;;;;;5043101;28;20045;-84
2021/09/17 01:42:00;;;;;;;8.18;3.63;;;13.20;99.90;;;;;;5048278;28;20017;-82
2021/09/17 01:44:26;;;;;;;6.20;3.67;;;15.40;99.90;;;;;;5042303;28;20017;-81
2021/09/17 01:46:51;;;;;;;7.75;3.80;;;14.40;99.90;;;;;;5042114;28;20459;-84
2021/09/17 01:49:17;;;;;;;6.88;4.20;;;13.80;99.90;;;;;;5042543;28;20025;-82
2021/09/17 01:51:43;;;;;;;5.85;3.88;;;13.60;99.90;;;;;;5049151;28;20124;-83
2021/09/17 01:54:08;;;;;;;6.40;3.72;;;13.60;99.90;;;;;;5045316;28;20032;-83
2021/09/17 01:56:35;;;;;;;4.68;3.40;;;14.00;99.90;;;;;;5050692;28;20029;-81
2021/09/17 01:59:01;;;;;;;5.38;3.65;;;14.00;99.90;;;;;;5042657;28;20026;-83
2021/09/17 02:01:27;;;;;;;6.63;3.55;;;13.60;99.90;;;;;;5039666;28;20093;-83
2021/09/17 02:03:52;;;;;;;7.25;3.78;;;13.50;99.90;;;;;;5042392;28;20025;-85
2021/09/17 02:06:24;;;;;;;6.05;3.40;;;13.60;99.90;;;;;;5049825;28;20045;-82
2021/09/17 02:08:51;;;;;;;8.05;4.05;;;13.50;99.90;;;;;;5044506;28;20030;-82
2021/09/17 02:11:17;;;;;;;6.70;3.75;;;13.50;99.90;;;;;;5037508;28;20426;-83
2021/09/17 02:13:42;;;;;;;6.07;3.90;;;13.60;99.90;;;;;;5042914;28;20029;-82
2021/09/17 02:16:08;;;;;;;8.00;3.60;;;13.40;99.90;;;;;;5041275;28;20022;-82
2021/09/17 02:18:34;;;;;;;7.47;3.72;;;13.70;99.90;;;;;;5039854;28;20025;-82
2021/09/17 02:21:00;;;;;;;5.57;3.42;;;15.00;99.90;;;;;;5042982;28;20024;-82
2021/09/17 02:23:25;;;;;;;5.53;3.78;;;13.30;99.90;;;;;;5047130;28;20032;-82
2021/09/17 02:25:51;;;;;;;8.05;4.03;;;14.80;99.90;;;;;;5044142;28;20055;-85
2021/09/17 02:28:17;;;;;;;6.93;3.58;;;13.30;99.90;;;;;;5043130;28;20055;-83
2021/09/17 02:30:42;;;;;;;9.00;3.78;;;14.90;99.90;;;;;;5038878;28;20021;-84
2021/09/17 02:33:08;;;;;;;8.98;3.72;;;15.10;99.90;;;;;;5037618;28;20080;-83
2021/09/17 02:35:34;;;;;;;8.45;3.50;;;14.50;99.90;;;;;;5037518;28;20026;-82
2021/09/17 02:38:00;;;;;;;5.50;3.53;;;13.90;99.90;;;;;;5035247;28;20025;-80
2021/09/17 02:40:26;;;;;;;10.07;3.63;;;14.80;99.90;;;;;;5037788;28;20029;-84
2021/09/17 02:42:51;;;;;;;6.43;3.70;;;13.30;99.90;;;;;;5038436;28;20017;-83
2021/09/17 02:45:17;;;;;;;9.38;4.10;;;13.80;99.90;;;;;;5046026;28;20022;-81
2021/09/17 02:47:43;;;;;;;6.57;4.10;;;15.10;99.90;;;;;;5056360;28;20595;-84
2021/09/17 02:50:09;;;;;;;8.30;3.85;;;12.50;99.90;;;;;;5047505;28;20029;-82
2021/09/17 02:52:35;;;;;;;6.72;3.95;;;13.10;99.90;;;;;;5048594;28;20168;-81
2021/09/17 02:55:01;;;;;;;9.07;3.88;;;13.10;99.90;;;;;;5040536;28;20504;-83
2021/09/17 02:57:26;;;;;;;8.50;3.75;;;13.70;99.90;;;;;;5044807;28;20128;-83
2021/09/17 02:59:52;;;;;;;9.05;3.92;;;13.30;99.90;;;;;;5039491;28;20022;-82
2021/09/17 03:02:18;;;;;;;6.68;4.10;;;13.00;99.90;;;;;;5036435;28;20052;-82
2021/09/17 03:04:44;;;;;;;6.70;3.72;;;14.10;99.90;;;;;;5031785;28;20600;-83
2021/09/17 03:07:10;;;;;;;8.23;3.90;;;13.10;99.90;;;;;;5046326;28;20426;-83
2021/09/17 03:09:35;;;;;;;9.90;4.18;;;15.10;99.90;;;;;;5041198;28;20079;-81
2021/09/17 03:12:01;;;;;;;7.43;4.30;;;12.90;99.90;;;;;;5038514;28;20121;-83
2021/09/17 03:14:27;;;;;;;7.43;4.35;;;12.90;99.90;;;;;;5047766;28;20507;-82
2021/09/17 03:16:53;;;;;;;7.07;4.35;;;14.80;99.90;;;;;;5037782;28;20113;-84
2021/09/17 03:19:18;;;;;;;6.53;4.03;;;14.80;99.90;;;;;;5041420;28;20080;-82
2021/09/17 03:21:44;;;;;;;7.15;4.45;;;12.90;99.90;;;;;;5035019;28;20097;-84
2021/09/17 03:24:10;;;;;;;12.75;4.65;;;12.90;99.90;;;;;;5047594;28;20072;-83
2021/09/17 03:26:36;;;;;;;6.05;3.92;;;12.80;99.90;;;;;;5042578;28;20017;-83
2021/09/17 03:29:03;;;;;;;5.93;4.05;;;13.60;99.90;;;;;;5041027;28;20032;-82
2021/09/17 03:31:28;;;;;;;6.57;4.00;;;14.30;99.90;;;;;;5046852;28;20495;-83
2021/09/17 03:33:54;;;;;;;6.28;4.28;;;12.80;99.90;;;;;;5042341;28;20078;-83
2021/09/17 03:36:20;;;;;;;5.65;3.85;;;14.10;99.90;;;;;;5042791;28;20020;-80
2021/09/17 03:38:46;;;;;;;6.15;3.58;;;14.30;99.90;;;;;;5047194;28;20033;-83
2021/09/17 03:41:12;;;;;;;7.05;3.90;;;13.50;99.90;;;;;;5045695;28;20383;-82
2021/09/17 03:43:37;;;;;;;6.30;4.30;;;12.80;99.90;;;;;;5048787;28;20040;-82
2021/09/17 03:46:03;;;;;;;7.20;4.00;;;12.70;99.90;;;;;;5041684;28;20550;-82
2021/09/17 03:48:29;;;;;;;6.07;4.18;;;12.70;99.90;;;;;;5043826;28;20017;-83
2021/09/17 03:50:54;;;;;;;5.57;3.88;;;13.20;99.90;;;;;;5047667;28;20414;-83
2021/09/17 03:53:20;;;;;;;5.93;3.90;;;12.70;99.90;;;;;;5042615;28;20051;-83
2021/09/17 03:55:45;;;;;;;7.78;3.75;;;12.70;99.90;;;;;;5041022;28;20041;-85
2021/09/17 03:58:12;;;;;;;7.72;4.00;;;14.80;99.90;;;;;;5042507;28;20380;-82
2021/09/17 04:00:37;;;;;;;7.93;4.50;;;12.60;99.90;;;;;;5047679;28;20089;-81
2021/09/17 04:03:04;;;;;;;6.47;4.10;;;12.60;99.90;;;;;;5037961;28;20026;-84
2021/09/17 04:05:30;;;;;;;10.23;4.40;;;12.60;99.90;;;;;;5039032;28;20185;-79
2021/09/17 04:07:56;;;;;;;6.88;4.00;;;12.60;99.90;;;;;;5050680;28;20022;-83
2021/09/17 04:10:21;;;;;;;6.85;4.05;;;12.60;99.90;;;;;;5039509;28;20029;-82
2021/09/17 04:12:48;;;;;;;7.07;3.80;;;13.30;99.90;;;;;;5049475;28;20508;-84
2021/09/17 04:15:14;;;;;;;6.05;4.45;;;12.60;99.90;;;;;;5039173;28;20491;-80
2021/09/17 04:17:40;;;;;;;6.57;4.30;;;12.50;99.90;;;;;;5039368;28;20026;-81
2021/09/17 04:20:07;;;;;;;6.43;3.90;;;12.50;99.90;;;;;;5041385;28;20041;-80
2021/09/17 04:22:32;;;;;;;9.85;4.30;;;12.40;99.90;;;;;;5039124;28;20014;-81
2021/09/17 04:24:58;;;;;;;14.60;6.07;;;12.50;99.90;;;;;;5040452;28;20055;-86
2021/09/17 04:27:27;;;;;;;6.90;4.03;;;12.50;99.90;;;;;;5046478;28;20044;-81
2021/09/17 04:29:53;;;;;;;6.97;4.13;;;13.90;99.90;;;;;;5035129;28;20021;-83
2021/09/17 04:32:20;;;;;;;5.95;3.75;;;12.70;99.90;;;;;;5049157;28;20029;-83
2021/09/17 04:34:45;;;;;;;9.45;3.53;;;12.50;99.90;;;;;;5044386;28;20079;-83
2021/09/17 04:37:11;;;;;;;8.93;3.67;;;12.40;99.90;;;;;;5041841;28;20026;-84
2021/09/17 04:39:37;;;;;;;6.78;4.05;;;12.50;99.90;;;;;;5046207;28;20029;-84
2021/09/17 04:42:03;;;;;;;6.28;3.58;;;12.50;99.90;;;;;;5037700;28;20545;-84
2021/09/17 04:44:29;;;;;;;6.53;4.03;;;12.50;99.90;;;;;;5041783;28;20133;-83
2021/09/17 04:46:54;;;;;;;8.18;4.68;;;12.50;99.90;;;;;;5054206;28;20028;-81
2021/09/17 04:49:20;;;;;;;10.32;4.63;;;12.50;99.90;;;;;;5058703;28;20021;-84
2021/09/17 04:51:46;;;;;;;12.38;5.15;;;13.10;99.90;;;;;;5051213;28;20109;-84
2021/09/17 04:54:13;;;;;;;11.65;5.53;;;12.50;99.90;;;;;;5036811;28;20076;-80
2021/09/17 04:56:39;;;;;;;9.20;5.60;;;12.50;99.90;;;;;;5037650;28;20410;-83
2021/09/17 04:59:05;;;;;;;20.35;5.95;;;13.70;99.90;;;;;;5040429;28;20117;-83
2021/09/17 05:01:30;;;;;;;11.35;5.40;;;12.40;99.90;;;;;;5035157;28;20022;-82
2021/09/17 05:03:56;;;;;;;13.90;6.18;;;12.40;99.90;;;;;;5055737;28;20021;-82
2021/09/17 05:06:22;;;;;;;15.63;5.97;;;12.50;99.90;;;;;;5039292;28;20113;-81
2021/09/17 05:08:48;;;;;;;17.85;7.82;;;12.50;99.90;;;;;;5043477;28;20035;-83
2021/09/17 05:11:13;;;;;;;17.23;6.35;;;13.20;99.90;;;;;;5042634;28;20090;-82
2021/09/17 05:13:39;;;;;;;14.15;6.80;;;12.50;99.90;;;;;;5052099;28;20648;-82
2021/09/17 05:16:04;;;;;;;17.73;7.00;;;12.80;99.90;;;;;;5042376;28;20025;-81
2021/09/17 05:18:30;;;;;;;18.35;7.05;;;12.60;99.90;;;;;;5043089;28;20033;-83
2021/09/17 05:20:56;;;;;;;14.18;6.95;;;12.60;99.90;;;;;;5037520;28;20041;-83
2021/09/17 05:23:21;;;;;;;13.88;7.68;;;12.60;99.90;;;;;;5045444;28;20018;-84
2021/09/17 05:25:47;;;;;;;13.20;6.55;;;14.60;99.90;;;;;;5034247;28;20068;-80
2021/09/17 05:28:15;;;;;;;12.98;5.55;;;12.60;99.90;;;;;;5030766;28;20032;-82
2021/09/17 05:30:41;;;;;;;10.02;4.63;;;12.70;99.90;;;;;;5055148;28;20505;-83
2021/09/17 05:33:06;;;;;;;9.82;4.88;;;12.70;99.90;;;;;;5036648;28;20032;-82
2021/09/17 05:35:32;;;;;;;10.27;5.18;;;12.70;99.90;;;;;;5049968;28;20025;-84
2021/09/17 05:37:58;;;;;;;8.18;4.68;;;12.70;99.90;;;;;;5040066;28;20031;-82
2021/09/17 05:40:24;;;;;;;7.10;4.82;;;12.80;99.90;;;;;;5026672;28;20438;-82
2021/09/17 05:42:49;;;;;;;9.45;4.60;;;12.80;99.90;;;;;;5039924;28;20041;-79
2021/09/17 05:45:15;;;;;;;8.45;4.85;;;12.80;99.90;;;;;;5035451;28;20033;-80
2021/09/17 05:47:44;;;;;;;9.93;5.40;;;12.90;99.90;;;;;;5033288;28;20021;-82
2021/09/17 05:50:11;;;;;;;9.18;5.50;;;12.90;99.90;;;;;;5033506;28;20494;-82
2021/09/17 05:52:37;;;;;;;8.90;4.95;;;12.90;99.90;;;;;;5034551;28;20085;-83
2021/09/17 05:55:05;;;;;;;9.25;4.70;;;12.90;99.90;;;;;;5037866;28;20398;-84
2021/09/17 05:57:31;;;;;;;8.45;4.88;;;13.00;99.90;;;;;;5032840;28;20051;-83
2021/09/17 05:59:57;;;;;;;9.10;5.50;;;13.00;99.90;;;;;;5036679;28;20724;-81
2021/09/17 06:02:22;;;;;;;8.73;5.47;;;13.10;99.90;;;;;;5037009;28;20079;-82
2021/09/17 06:04:48;;;;;;;12.30;5.30;;;13.20;99.90;;;;;;5037169;28;20033;-80
2021/09/17 06:07:14;;;;;;;11.52;5.45;;;13.20;99.90;;;;;;5038480;28;20025;-80
2021/09/17 06:09:40;;;;;;;10.77;5.45;;;13.30;99.90;;;;;;5014828;28;20118;-82
2021/09/17 06:12:05;;;;;;;10.60;5.13;;;13.40;99.90;;;;;;5031883;28;20025;-84
2021/09/17 06:14:32;;;;;;;10.18;4.97;;;13.40;99.90;;;;;;5029636;28;20033;-86
2021/09/17 06:16:57;;;;;;;9.57;5.22;;;13.60;99.90;;;;;;5033360;28;20057;-85
2021/09/17 06:19:23;;;;;;;10.65;5.38;;;13.50;99.90;;;;;;5030988;28;20075;-83
2021/09/17 06:21:49;;;;;;;11.57;5.25;;;13.60;99.90;;;;;;5036262;28;20079;-83
2021/09/17 06:24:14;;;;;;;11.15;4.82;;;14.60;99.90;;;;;;5038656;28;20026;-85
2021/09/17 06:26:40;;;;;;;10.82;5.47;;;13.50;99.90;;;;;;5037023;28;20025;-85
2021/09/17 06:29:07;;;;;;;12.05;5.70;;;13.70;99.90;;;;;;5036288;28;20096;-85
2021/09/17 06:31:34;;;;;;;12.02;5.80;;;13.70;99.90;;;;;;5033048;28;20021;-84
2021/09/17 06:34:00;;;;;;;8.90;4.90;;;13.80;99.90;;;;;;5026824;28;20068;-86
2021/09/17 06:36:25;;;;;;;9.38;4.78;;;13.80;99.90;;;;;;5024599;28;20025;-85
2021/09/17 06:38:52;;;;;;;8.77;5.20;;;14.20;99.90;;;;;;5036557;28;20026;-85
2021/09/17 06:41:18;;;;;;;9.90;4.95;;;14.70;99.90;;;;;;5042897;28;20259;-84
2021/09/17 06:43:44;;;;;;;7.90;4.93;;;14.80;99.90;;;;;;5038145;28;20022;-84
2021/09/17 06:46:10;;;;;;;8.73;4.75;;;14.00;99.90;;;;;;5034253;28;20133;-85
2021/09/17 06:48:36;;;;;;;8.63;4.82;;;14.10;99.90;;;;;;5032386;28;20300;-85
2021/09/17 06:51:02;;;;;;;10.20;5.55;;;13.90;99.90;;;;;;5038609;28;20112;-84
2021/09/17 06:53:28;;;;;;;9.77;5.00;;;13.90;99.90;;;;;;5037351;28;20033;-85
2021/09/17 06:55:54;;;;;;;9.05;5.32;;;;;;;;;;5038328;28;20069;-86
2021/09/17 06:58:20;;;;;;;10.77;5.90;;;14.00;99.90;;;;;;5039358;28;20093;-86
2021/09/17 07:00:45;;;;;;;13.48;5.60;;;14.10;99.90;;;;;;5040110;28;20060;-86
2021/09/17 07:03:11;;;;;;;13.43;5.55;;;14.10;99.90;;;;;;5034179;28;20030;-85
2021/09/17 07:05:37;;;;;;;9.63;5.63;;;15.90;99.90;;;;;;5039760;28;20438;-86
2021/09/17 07:08:08;;;;;;;11.23;5.85;;;14.20;99.90;;;;;;5039390;28;20367;-87
2021/09/17 07:10:34;;;;;;;;;;;15.60;99.90;;;;;;5034992;28;20498;-84
2021/09/17 07:13:00;;;;;;;12.23;6.15;;;;;;;;;;5041865;28;19916;-83
2021/09/17 07:15:26;;;;;;;11.95;6.03;;;14.40;99.90;;;;;;5040183;28;20450;-82
2021/09/17 07:17:52;;;;;;;10.45;6.50;;;14.70;99.90;;;;;;5040917;28;20027;-84
2021/09/17 07:20:18;;;;;;;13.05;6.57;;;16.30;99.90;;;;;;5040048;28;20021;-88
2021/09/17 07:22:44;;;;;;;10.85;6.40;;;14.60;99.90;;;;;;5040924;28;20018;-82
2021/09/17 07:25:11;;;;;;;12.40;6.22;;;15.90;99.90;;;;;;5040454;28;20052;-85
2021/09/17 07:27:37;;;;;;;8.73;5.82;;;15.00;99.90;;;;;;5040403;28;20398;-83
2021/09/17 07:30:04;;;;;;;13.68;6.55;;;16.90;99.90;;;;;;5040738;28;20096;-84
2021/09/17 07:32:30;;;;;;;11.63;7.75;;;15.10;99.90;;;;;;5040498;28;20018;-82
2021/09/17 07:34:56;;;;;;;11.80;6.55;;;17.40;99.90;;;;;;5037435;28;20029;-85
2021/09/17 07:37:22;;;;;;;13.05;6.43;;;15.60;99.90;;;;;;5033744;28;20024;-84
2021/09/17 07:39:48;;;;;;;11.45;6.10;;;16.10;99.90;;;;;;5040862;28;20029;-84
2021/09/17 07:42:13;;;;;;;15.45;6.50;;;15.20;99.90;;;;;;5040669;28;20075;-85
2021/09/17 07:44:39;;;;;;;11.02;6.43;;;15.20;99.90;;;;;;5041434;28;20029;-83
2021/09/17 07:47:05;;;;;;;12.00;6.75;;;15.80;99.90;;;;;;5038050;28;20026;-83
2021/09/17 07:49:32;;;;;;;12.85;6.78;;;15.40;99.90;;;;;;5039304;28;20021;-82
2021/09/17 07:51:57;;;;;;;13.57;6.80;;;15.50;99.90;;;;;;5039402;28;20037;-82
2021/09/17 07:54:24;;;;;;;15.27;6.97;;;15.30;99.90;;;;;;5038425;28;20041;-83
2021/09/17 07:56:50;;;;;;;11.90;6.97;;;;;;;;;;5057243;28;20029;-82
2021/09/17 07:59:16;;;;;;;14.38;7.20;;;;;;;;;;5039410;28;20037;-81
2021/09/17 08:01:42;;;;;;;13.75;6.88;;;;;;;;;;5034059;28;20471;-86
2021/09/17 08:04:08;;;;;;;10.43;5.82;;;;;;;;;;5038984;28;20040;-82
2021/09/17 08:06:34;;;;;;;15.10;7.13;;;15.40;99.90;;;;;;5036182;28;20456;-83
2021/09/17 08:09:00;;;;;;;10.85;6.45;;;;;;;;;;5041270;28;20072;-84
2021/09/17 08:11:26;;;;;;;10.60;6.43;;;;;;;;;;5033170;28;20149;-83
2021/09/17 08:13:52;;;;;;;11.38;6.82;;;;;;;;;;5043046;28;20120;-82
2021/09/17 08:16:18;;;;;;;13.88;7.43;;;;;;;;;;5043796;28;20047;-82
2021/09/17 08:18:47;;;;;;;12.18;7.00;;;;;;;;;;5039804;28;20032;-80
2021/09/17 08:21:13;;;;;;;12.90;7.50;;;;;;;;;;5037414;28;20041;-83
2021/09/17 08:23:39;;;;;;;13.73;7.68;;;15.90;99.90;;;;;;5039013;28;20103;-84
2021/09/17 08:26:08;;;;;;;11.45;6.13;;;16.00;99.90;;;;;;5042445;28;20052;-83
2021/09/17 08:28:34;;;;;;;19.27;8.90;;;;;;;;;;5043199;28;20041;-84
2021/09/17 08:31:03;;;;;;;15.30;6.68;;;;;;;;;;5036630;28;20025;-83
2021/09/17 08:33:29;;;;;;;12.32;7.32;;;;;;;;;;5055669;28;20511;-82
2021/09/17 08:35:56;;;;;;;15.40;7.43;;;;;;;;;;5051084;28;20037;-84
2021/09/17 08:38:22;;;;;;;11.82;7.22;;;;;;;;;;5045882;28;20061;-81
2021/09/17 08:40:56;;;;;;;13.88;7.20;;;16.80;99.90;;;;;;5040060;28;20529;-84
2021/09/17 08:43:22;;;;;;;14.25;7.55;;;16.80;99.90;;;;;;5037516;28;20034;-82
2021/09/17 08:45:48;;;;;;;10.73;7.15;;;16.90;99.90;;;;;;5040402;28;20030;-81
2021/09/17 08:48:15;;;;;;;20.23;9.13;;;17.00;99.90;;;;;;5041486;28;20029;-83
2021/09/17 08:50:41;;;;;;;15.45;7.85;;;;;;;;;;5043074;28;20100;-83
2021/09/17 08:53:07;;;;;;;14.57;7.65;;;17.40;99.90;;;;;;5043197;28;20033;-79
2021/09/17 08:55:33;;;;;;;12.98;6.95;;;17.80;99.90;;;;;;5041449;28;20029;-81
2021/09/17 08:57:59;;;;;;;9.85;6.72;;;;;;;;;;5039754;28;20079;-80
2021/09/17 09:00:31;;;;;;;8.60;6.13;;;18.10;99.90;;;;;;5025923;28;20061;-82
2021/09/17 09:03:00;;;;;;;13.23;6.43;;;18.20;99.90;;;;;;5034368;28;20087;-83
2021/09/17 09:05:31;;;;;;;12.17;6.40;;;18.30;99.90;;;;;;5041778;28;20017;-82
2021/09/17 09:07:58;;;;;;;11.95;6.10;;;18.40;99.90;;;;;;5040518;28;20045;-82
2021/09/17 09:10:24;;;;;;;8.68;5.40;;;18.60;99.90;;;;;;5038530;28;20040;-79
2021/09/17 09:12:55;;;;;;;11.27;6.55;;;18.60;99.90;;;;;;5035854;28;20037;-82
2021/09/17 09:15:28;;;;;;;9.18;5.70;;;19.00;99.90;;;;;;5036931;28;20097;-82
2021/09/17 09:17:58;;;;;;;9.05;5.25;;;18.90;99.50;;;;;;5036389;28;20564;-82
2021/09/17 09:20:41;;;;;;;10.13;5.55;;;19.10;99.40;;;;;;5048575;28;20037;-81
2021/09/17 09:23:22;;;;;;;8.55;5.43;;;19.20;99.50;;;;;;5046187;28;20040;-82
2021/09/17 09:25:54;;;;;;;8.82;5.30;;;;;;;;;;5041956;28;20018;-83
2021/09/17 09:28:45;;;;;;;10.15;5.18;;;19.30;99.40;;;;;;5042275;28;20104;-81
2021/09/17 09:31:15;;;;;;;8.63;5.15;;;;;;;;;;5036490;28;20033;-82
2021/09/17 09:33:43;;;;;;;11.73;5.72;;;19.40;99.00;;;;;;5040978;28;20052;-79
2021/09/17 09:36:17;;;;;;;6.40;4.78;;;19.30;99.00;;;;;;5043448;28;20055;-82
2021/09/17 09:38:51;;;;;;;7.57;4.60;;;;;;;;;;5043270;28;20022;-83
2021/09/17 09:41:20;;;;;;;12.63;6.28;;;;;;;;;;5040961;28;20116;-82
2021/09/17 09:43:55;;;;;;;9.23;5.88;;;;;;;;;;5041423;28;20052;-84
2021/09/17 09:46:33;;;;;;;8.73;5.40;;;19.90;96.20;;;;;;5037279;28;20022;-83
2021/09/17 09:48:59;;;;;;;8.65;5.30;;;20.00;96.50;;;;;;5035777;28;20076;-82
2021/09/17 09:51:26;;;;;;;8.30;5.07;;;20.20;96.20;;;;;;5037845;28;20025;-82
2021/09/17 09:53:52;;;;;;;11.95;5.70;;;20.40;96.00;;;;;;5039055;28;20029;-81
2021/09/17 09:56:21;;;;;;;7.85;4.70;;;;;;;;;;5041502;28;20018;-82
2021/09/17 09:58:50;;;;;;;6.73;5.13;;;20.70;95.00;;;;;;5040423;28;20021;-82
2021/09/17 10:01:18;;;;;;;10.02;5.72;;;;;;;;;;5042264;28;20029;-82
2021/09/17 10:03:45;;;;;;;7.22;5.20;;;20.90;94.70;;;;;;5035635;28;20120;-83
2021/09/17 10:06:16;;;;;;;7.10;5.15;;;20.60;95.00;;;;;;5040646;28;20018;-79
2021/09/17 10:08:41;;;;;;;10.27;5.38;;;20.60;95.20;;;;;;5039594;28;20107;-81
2021/09/17 10:11:08;;;;;;;7.75;4.80;;;;;;;;;;5037710;28;20339;-81
2021/09/17 10:13:34;;;;;;;8.60;5.05;;;;;;;;;;5037706;28;20071;-84
2021/09/17 10:16:00;;;;;;;7.72;4.40;;;;;;;;;;5038224;28;20091;-81
2021/09/17 10:18:27;;;;;;;7.18;4.22;;;20.70;95.90;;;;;;5039490;28;20022;-83
2021/09/17 10:20:53;;;;;;;7.07;4.53;;;;;;;;;;5035073;28;20391;-84
2021/09/17 10:23:30;;;;;;;5.78;3.60;;;20.80;95.70;;;;;;5033079;28;20025;-82
2021/09/17 10:26:00;;;;;;;5.65;4.25;;;;;;;;;;5040002;28;20025;-83
2021/09/17 10:28:26;;;;;;;8.27;5.03;;;21.30;94.70;;;;;;5041112;28;20487;-84
2021/09/17 10:30:52;;;;;;;9.32;5.78;;;;;;;;;;5038433;28;20037;-83
2021/09/17 10:33:22;;;;;;;5.97;3.72;;;21.50;93.80;;;;;;5042446;28;20029;-83
2021/09/17 10:35:48;;;;;;;;;;;22.40;94.30;;;;;;5040949;28;20132;-84
2021/09/17 10:38:17;;;;;;;7.50;4.63;;;21.50;93.10;;;;;;5040928;28;19932;-84
2021/09/17 10:41:02;;;;;;;6.30;4.00;;;21.60;93.00;;;;;;5040497;28;20088;-85
2021/09/17 10:43:38;;;;;;;9.25;4.40;;;21.70;92.80;;;;;;5041230;28;20026;-83
2021/09/17 10:46:07;;;;;;;6.00;4.28;;;21.80;92.70;;;;;;5033019;28;20410;-82
2021/09/17 10:48:42;;;;;;;5.65;3.58;;;21.80;92.90;;;;;;5040999;28;20025;-83
2021/09/17 10:51:09;;;;;;;5.75;3.88;;;22.00;92.40;;;;;;5033909;28;20030;-81
2021/09/17 10:53:41;;;;;;;8.25;4.32;;;22.00;92.30;;;;;;5040638;28;20029;-83
2021/09/17 10:56:11;;;;;;;8.68;4.13;;;22.50;91.20;;;;;;5041927;28;20029;-81
2021/09/17 10:58:38;;;;;;;7.40;3.63;;;22.50;90.90;;;;;;5031653;28;20026;-83
2021/09/17 11:01:04;;;;;;;6.00;4.05;;;;;;;;;;5031546;28;20063;-81
2021/09/17 11:03:36;;;;;;;6.20;4.15;;;;;;;;;;5031147;28;20044;-84
2021/09/17 11:06:21;;;;;;;7.68;4.38;;;22.00;90.70;;;;;;5035144;28;20021;-81
2021/09/17 11:09:00;;;;;;;7.53;3.60;;;22.00;90.60;;;;;;5042000;28;20022;-85
2021/09/17 11:11:26;;;;;;;5.43;3.20;;;;;;;;;;5034889;28;20470;-84
2021/09/17 11:13:55;;;;;;;7.00;3.75;;;21.60;90.30;;;;;;5031336;28;20022;-83
2021/09/17 11:16:22;;;;;;;6.88;2.83;;;21.30;90.20;;;;;;5038449;28;20120;-84
2021/09/17 11:19:00;;;;;;;11.38;5.18;;;21.30;90.20;;;;;;5039967;28;20060;-83
2021/09/17 11:21:27;;;;;;;10.13;4.25;;;21.30;90.00;;;;;;5040110;28;20116;-82
2021/09/17 11:23:53;;;;;;;5.57;3.50;;;21.40;90.00;;;;;;5040164;28;20057;-82
2021/09/17 11:26:25;;;;;;;7.63;3.55;;;21.50;88.90;;;;;;5039382;28;20029;-81
2021/09/17 11:29:08;;;;;;;5.65;3.65;;;22.00;86.80;;;;;;5040231;28;20030;-82
2021/09/17 11:31:36;;;;;;;5.90;3.25;;;22.30;86.50;;;;;;5038621;28;20029;-83
2021/09/17 11:34:04;;;;;;;9.50;3.53;;;22.10;87.10;;;;;;5039668;28;20030;-83
2021/09/17 11:36:33;;;;;;;5.85;3.50;;;22.30;85.90;;;;;;5040044;28;20108;-83
2021/09/17 11:39:23;;;;;;;5.00;2.63;;;22.20;86.10;;;;;;5039985;28;20048;-83
2021/09/17 11:42:02;;;;;;;5.30;2.67;;;22.30;85.60;;;;;;5038114;28;20368;-82
2021/09/17 11:44:46;;;;;;;5.82;3.20;;;22.20;85.70;;;;;;5036892;28;20025;-83
2021/09/17 11:47:13;;;;;;;5.60;3.28;;;22.10;87.10;;;;;;5041233;28;20021;-84
2021/09/17 11:49:42;;;;;;;5.97;3.50;;;22.20;86.30;;;;;;5039147;28;20040;-81
2021/09/17 11:52:11;;;;;;;3.20;2.03;;;22.20;86.70;;;;;;5041402;28;20029;-81
2021/09/17 11:54:36;;;;;;;2.60;1.83;;;22.60;79.80;;;;;;5041628;28;20110;-84
2021/09/17 11:57:11;;;;;;;4.43;1.77;;;22.60;80.50;;;;;;5050627;28;20056;-83
2021/09/17 11:59:43;;;;;;;4.40;1.95;;;22.50;79.70;;;;;;5040641;28;20021;-80
2021/09/17 12:02:20;;;;;;;3.30;1.60;;;22.50;80.10;;;;;;5036964;28;20130;-83
2021/09/17 12:04:56;;;;;;;3.17;2.00;;;22.40;81.10;;;;;;5039203;28;20497;-83
2021/09/17 12:07:23;;;;;;;7.60;2.70;;;24.10;82.70;;;;;;5042939;28;20513;-82
2021/09/17 12:09:49;;;;;;;3.67;2.42;;;22.40;81.40;;;;;;5051946;28;20034;-83
2021/09/17 12:12:15;;;;;;;4.53;2.00;;;22.60;82.00;;;;;;5054095;28;20025;-85
2021/09/17 12:14:55;;;;;;;5.22;1.80;;;22.60;81.00;;;;;;5047622;28;20038;-82
2021/09/17 12:17:21;;;;;;;5.13;2.05;;;22.40;79.70;;;;;;5041797;28;20033;-81
2021/09/17 12:20:03;;;;;;;7.40;3.78;;;22.30;80.80;;;;;;5039835;28;20037;-82
2021/09/17 12:22:42;;;;;;;6.75;2.38;;;22.30;80.70;;;;;;5028732;28;20487;-82
2021/09/17 12:25:12;;;;;;;8.38;3.53;;;22.30;81.00;;;;;;5022913;28;20026;-83
2021/09/17 12:27:40;;;;;;;14.63;5.40;;;22.00;81.60;;;;;;5027901;28;20025;-83
2021/09/17 12:30:09;;;;;;;8.18;3.20;;;21.90;82.30;;;;;;5041231;28;20348;-83
2021/09/17 12:32:35;;;;;;;17.83;5.32;;;21.80;83.20;;;;;;5042274;28;20051;-83
2021/09/17 12:35:28;;;;;;;14.43;4.35;;;21.70;84.60;;;;;;5041463;28;20060;-80
2021/09/17 12:37:55;;;;;;;5.30;2.63;;;21.60;83.70;;;;;;5040825;28;20051;-83
2021/09/17 12:40:27;;;;;;;8.85;2.63;;;21.50;82.10;;;;;;5039822;28;20026;-83
2021/09/17 12:42:59;;;;;;;8.18;2.67;;;21.50;82.40;;;;;;5041323;28;20030;-83
2021/09/17 12:45:25;;;;;;;3.53;1.80;;;21.20;80.50;;;;;;5041154;28;20026;-82
2021/09/17 12:47:53;;;;;;;4.15;1.70;;;21.20;80.70;;;;;;5042719;28;20028;-82
2021/09/17 12:50:19;;;;;;;3.78;1.90;;;;;;;;;;5041174;28;20036;-82
2021/09/17 12:52:48;;;;;;;4.03;2.50;;;21.30;82.70;;;;;;5038609;28;20057;-82
2021/09/17 12:55:23;;;;;;;6.60;2.20;;;21.40;83.50;;;;;;5041991;28;20029;-82
2021/09/17 12:58:03;;;;;;;6.32;2.55;;;21.60;83.80;;;;;;5041222;28;20083;-82